createdAt,value
2019-05-03T00:03:51.884Z,25.40
2019-05-03T00:06:23.354Z,23.70
2019-05-03T00:08:55.929Z,24.35
2019-05-03T00:11:25.022Z,24.98
2019-05-03T00:13:56.398Z,23.62
2019-05-03T00:16:32.541Z,23.67
2019-05-03T00:19:03.244Z,24.23
2019-05-03T00:21:32.737Z,24.95
2019-05-03T00:24:02.981Z,24.77
2019-05-03T00:26:31.968Z,24.60
2019-05-03T00:29:02.216Z,25.57
2019-05-03T00:31:31.892Z,24.55
2019-05-03T00:34:06.548Z,24.55
2019-05-03T00:36:55.292Z,25.50
2019-05-03T00:39:39.022Z,24.00
2019-05-03T00:42:08.138Z,24.45
2019-05-03T00:44:37.006Z,23.75
2019-05-03T00:47:05.954Z,24.20
2019-05-03T00:49:34.944Z,24.02
2019-05-03T00:52:04.032Z,24.70
2019-05-03T00:54:32.895Z,23.52
2019-05-03T00:57:02.735Z,23.47
2019-05-03T00:59:32.673Z,23.15
2019-05-03T01:02:02.681Z,23.73
2019-05-03T01:04:33.665Z,25.20
2019-05-03T01:07:02.574Z,23.45
2019-05-03T01:09:31.807Z,24.02
2019-05-03T01:12:01.930Z,23.57
2019-05-03T01:14:31.787Z,24.92
2019-05-03T01:17:02.605Z,24.37
2019-05-03T01:22:01.953Z,23.35
2019-05-03T01:24:32.250Z,24.65
2019-05-03T01:27:02.591Z,24.47
2019-05-03T01:32:02.515Z,24.35
2019-05-03T01:34:37.038Z,24.92
2019-05-03T01:37:06.019Z,24.32
2019-05-03T01:39:34.954Z,24.05
2019-05-03T01:42:03.997Z,24.32
2019-05-03T01:44:32.985Z,25.95
2019-05-03T01:47:04.672Z,24.65
2019-05-03T01:49:42.568Z,24.70
2019-05-03T01:52:33.581Z,25.40
2019-05-03T01:55:03.295Z,24.92
2019-05-03T01:57:32.530Z,24.05
2019-05-03T02:00:02.827Z,24.47
2019-05-03T02:03:01.556Z,23.30
2019-05-03T02:05:45.139Z,22.73
2019-05-03T02:08:14.096Z,23.27
2019-05-03T02:10:44.078Z,24.55
2019-05-03T02:13:13.046Z,25.37
2019-05-03T02:15:42.301Z,24.67
2019-05-03T02:18:14.887Z,23.30
2019-05-03T02:20:42.401Z,24.92
2019-05-03T02:23:11.894Z,25.02
2019-05-03T02:25:41.920Z,25.08
2019-05-03T02:28:12.649Z,24.32
2019-05-03T02:30:44.001Z,24.60
2019-05-03T02:33:13.453Z,24.87
2019-05-03T02:38:13.494Z,26.93
2019-05-03T02:40:43.097Z,23.80
2019-05-03T02:43:21.331Z,25.50
2019-05-03T02:46:10.554Z,24.90
2019-05-03T02:49:07.818Z,25.17
2019-05-03T02:51:36.960Z,25.97
2019-05-03T02:54:06.086Z,25.50
2019-05-03T02:56:35.739Z,25.17
2019-05-03T02:59:06.141Z,25.72
2019-05-03T03:01:35.998Z,26.33
2019-05-03T03:04:05.849Z,24.30
2019-05-03T03:06:36.946Z,24.30
2019-05-03T03:09:07.047Z,24.27
2019-05-03T03:11:39.025Z,25.32
2019-05-03T03:14:12.416Z,24.72
2019-05-03T03:16:48.126Z,24.20
2019-05-03T03:19:19.954Z,24.80
2019-05-03T03:21:51.906Z,24.32
2019-05-03T03:24:25.988Z,23.40
2019-05-03T03:26:58.359Z,24.25
2019-05-03T03:29:28.576Z,24.15
2019-05-03T03:32:30.360Z,24.92
2019-05-03T03:35:20.846Z,24.45
2019-05-03T03:37:50.142Z,23.30
2019-05-03T03:40:20.527Z,22.98
2019-05-03T03:42:52.574Z,23.07
2019-05-03T03:45:22.172Z,24.20
2019-05-03T03:47:59.108Z,24.70
2019-05-03T03:50:35.899Z,24.60
2019-05-03T03:53:10.586Z,24.45
2019-05-03T03:58:09.400Z,26.35
2019-05-03T04:00:38.917Z,26.87
2019-05-03T04:03:08.723Z,26.02
2019-05-03T04:05:37.932Z,25.85
2019-05-03T04:08:07.305Z,26.25
2019-05-03T04:10:36.586Z,27.20
2019-05-03T04:13:08.548Z,26.77
2019-05-03T04:15:56.459Z,26.90
2019-05-03T04:18:40.488Z,28.47
2019-05-03T04:23:39.774Z,29.30
2019-05-03T04:26:10.105Z,28.12
2019-05-03T04:28:39.924Z,29.05
2019-05-03T04:31:09.053Z,29.72
2019-05-03T04:33:37.976Z,29.50
2019-05-03T04:36:07.077Z,30.32
2019-05-03T04:38:37.427Z,30.40
2019-05-03T04:41:06.955Z,30.48
2019-05-03T04:43:35.958Z,30.52
2019-05-03T04:46:09.684Z,29.48
2019-05-03T04:48:38.731Z,31.48
2019-05-03T04:53:37.667Z,29.57
2019-05-03T04:56:06.568Z,28.20
2019-05-03T04:58:36.474Z,30.50
2019-05-03T05:01:06.582Z,29.90
2019-05-03T05:06:06.317Z,28.50
2019-05-03T05:08:35.997Z,28.05
2019-05-03T05:11:06.747Z,28.83
2019-05-03T05:13:36.545Z,27.82
2019-05-03T05:16:06.283Z,27.02
2019-05-03T05:18:45.531Z,26.20
2019-05-03T05:21:17.719Z,26.05
2019-05-03T05:26:59.849Z,27.20
2019-05-03T05:29:30.453Z,27.90
2019-05-03T05:31:59.387Z,26.97
2019-05-03T05:34:28.465Z,26.50
2019-05-03T05:36:57.398Z,26.97
2019-05-03T05:39:26.387Z,26.35
2019-05-03T05:41:55.561Z,24.55
2019-05-03T05:44:25.053Z,25.10
2019-05-03T05:47:34.413Z,23.67
2019-05-03T05:50:34.621Z,24.47
2019-05-03T05:55:54.963Z,23.67
2019-05-03T05:58:37.755Z,24.40
2019-05-03T06:06:19.863Z,21.85
2019-05-03T06:08:55.939Z,22.98
2019-05-03T06:11:46.008Z,22.02
2019-05-03T06:14:38.630Z,22.62
2019-05-03T06:17:14.670Z,21.37
2019-05-03T06:19:51.632Z,20.50
2019-05-03T06:22:28.752Z,21.37
2019-05-03T06:25:06.386Z,21.80
2019-05-03T06:27:38.290Z,22.65
2019-05-03T06:30:27.483Z,23.25
2019-05-03T06:32:56.503Z,23.80
2019-05-03T06:35:25.700Z,23.98
2019-05-03T06:40:25.279Z,24.70
2019-05-03T06:43:08.219Z,24.15
2019-05-03T06:45:26.850Z,25.52
2019-05-03T06:47:56.291Z,25.80
2019-05-03T06:50:28.977Z,24.63
2019-05-03T06:52:59.840Z,24.65
2019-05-03T06:55:27.983Z,22.27
2019-05-03T06:58:30.372Z,18.60
2019-05-03T07:01:26.787Z,17.40
2019-05-03T07:04:01.573Z,16.37
2019-05-03T07:06:50.623Z,16.77
2019-05-03T07:09:44.709Z,16.10
2019-05-03T07:14:45.032Z,16.93
2019-05-03T07:17:14.487Z,18.52
2019-05-03T07:19:45.781Z,15.95
2019-05-03T07:22:15.362Z,14.35
2019-05-03T07:24:45.546Z,11.18
2019-05-03T07:29:45.466Z,10.85
2019-05-03T07:32:17.634Z,10.45
2019-05-03T07:34:46.580Z,10.25
2019-05-03T07:37:15.601Z,10.70
2019-05-03T07:39:45.311Z,10.75
2019-05-03T07:42:15.678Z,10.08
2019-05-03T07:49:30.065Z,8.80
2019-05-03T07:51:59.431Z,9.13
2019-05-03T07:54:30.582Z,8.70
2019-05-03T07:57:05.159Z,8.63
2019-05-03T07:59:35.554Z,8.10
2019-05-03T08:02:05.789Z,8.63
2019-05-03T08:04:35.904Z,9.63
2019-05-03T08:07:05.716Z,9.13
2019-05-03T08:09:35.140Z,9.63
2019-05-03T08:12:05.196Z,9.63
2019-05-03T08:14:35.661Z,10.13
2019-05-03T08:17:05.252Z,10.30
2019-05-03T08:19:35.718Z,10.23
2019-05-03T08:22:05.445Z,10.43
2019-05-03T08:24:34.743Z,10.10
2019-05-03T08:27:04.992Z,10.43
2019-05-03T08:29:35.199Z,9.80
2019-05-03T08:32:24.569Z,10.45
2019-05-03T08:35:12.646Z,9.98
2019-05-03T08:40:19.930Z,10.20
2019-05-03T08:42:48.978Z,10.30
2019-05-03T08:45:18.014Z,10.58
2019-05-03T08:47:47.453Z,9.95
2019-05-03T08:50:21.375Z,9.95
2019-05-03T08:52:47.578Z,9.80
2019-05-03T08:55:16.537Z,8.53
2019-05-03T08:57:45.584Z,9.63
2019-05-03T09:00:16.991Z,8.90
2019-05-03T09:02:46.479Z,8.58
2019-05-03T09:05:18.526Z,8.15
2019-05-03T09:07:50.698Z,7.78
2019-05-03T09:13:06.558Z,7.50
2019-05-03T09:15:36.323Z,7.50
2019-05-03T09:18:35.960Z,6.80
2019-05-03T09:21:05.705Z,7.50
2019-05-03T09:24:34.998Z,6.80
2019-05-03T09:27:05.485Z,6.55
2019-05-03T09:34:35.120Z,6.40
2019-05-03T09:37:06.315Z,6.85
2019-05-03T09:39:40.655Z,6.70
2019-05-03T09:44:40.154Z,6.40
2019-05-03T09:53:55.475Z,6.40
2019-05-03T10:05:46.996Z,5.60
2019-05-03T10:08:05.267Z,6.33
2019-05-03T10:19:54.603Z,5.45
2019-05-03T10:22:47.730Z,5.85
2019-05-03T10:26:16.074Z,6.50
2019-05-03T10:42:08.500Z,5.62
2019-05-03T10:54:07.518Z,5.60
2019-05-03T10:57:35.956Z,6.12
2019-05-03T11:11:01.521Z,5.05
2019-05-03T11:14:15.061Z,5.60
2019-05-03T11:22:25.432Z,4.40
2019-05-03T11:26:00.050Z,4.58
2019-05-03T11:33:45.675Z,4.22
2019-05-03T11:43:18.617Z,3.30
2019-05-03T11:46:51.250Z,4.15
2019-05-03T11:54:15.593Z,3.80
2019-05-03T11:57:31.101Z,3.80
2019-05-03T12:01:12.928Z,4.10
2019-05-03T12:04:42.873Z,4.58
2019-05-03T12:07:18.484Z,4.80
2019-05-03T12:09:47.723Z,5.25
2019-05-03T12:17:34.923Z,4.83
2019-05-03T12:20:07.748Z,5.08
2019-05-03T12:22:38.462Z,5.47
2019-05-03T12:25:10.495Z,5.10
2019-05-03T12:27:39.691Z,5.50
2019-05-03T12:32:37.390Z,4.72
2019-05-03T12:35:06.914Z,4.90
2019-05-03T12:37:35.965Z,4.95
2019-05-03T12:40:05.506Z,5.12
2019-05-03T12:45:06.726Z,5.08
2019-05-03T12:50:06.564Z,5.40
2019-05-03T12:52:49.573Z,4.65
2019-05-03T12:55:07.433Z,4.22
2019-05-03T12:57:36.612Z,4.50
2019-05-03T13:00:26.119Z,4.25
2019-05-03T13:02:59.421Z,4.08
2019-05-03T13:05:30.145Z,4.25
2019-05-03T13:08:26.444Z,4.20
2019-05-03T13:10:55.754Z,4.05
2019-05-03T13:13:24.969Z,4.42
2019-05-03T13:15:55.064Z,4.20
2019-05-03T13:18:25.229Z,4.37
2019-05-03T13:20:55.854Z,4.55
2019-05-03T13:23:25.483Z,4.60
2019-05-03T13:25:55.581Z,4.35
2019-05-03T13:28:25.429Z,4.92
2019-05-03T13:31:25.127Z,4.45
2019-05-03T13:33:54.939Z,4.30
2019-05-03T13:36:25.271Z,3.77
2019-05-03T13:39:09.847Z,4.22
2019-05-03T13:41:26.017Z,3.55
2019-05-03T13:44:00.961Z,4.05
2019-05-03T13:46:30.717Z,4.60
2019-05-03T13:49:00.554Z,3.87
2019-05-03T13:51:30.114Z,3.92
2019-05-03T13:53:59.582Z,3.17
2019-05-03T13:56:29.669Z,4.05
2019-05-03T14:01:27.574Z,3.72
2019-05-03T14:03:57.622Z,3.52
2019-05-03T14:06:27.071Z,3.20
2019-05-03T14:08:56.284Z,2.80
2019-05-03T14:11:25.592Z,3.00
2019-05-03T14:13:55.185Z,2.90
2019-05-03T14:16:24.445Z,2.77
2019-05-03T14:18:56.940Z,3.22
2019-05-03T14:21:34.466Z,2.98
2019-05-03T14:24:09.835Z,3.30
2019-05-03T14:26:40.943Z,2.85
2019-05-03T14:29:10.471Z,2.83
2019-05-03T14:31:39.667Z,2.80
2019-05-03T14:34:08.599Z,3.50
2019-05-03T14:36:37.565Z,2.62
2019-05-03T14:39:10.098Z,2.75
2019-05-03T14:41:39.442Z,2.20
2019-05-03T14:44:08.538Z,2.12
2019-05-03T14:49:07.785Z,2.00
2019-05-03T14:51:37.000Z,1.92
2019-05-03T14:54:07.148Z,1.70
2019-05-03T14:56:45.659Z,1.70
2019-05-03T14:59:35.679Z,2.00
2019-05-03T15:02:15.396Z,2.00
2019-05-03T15:07:15.768Z,2.10
2019-05-03T15:14:50.356Z,2.52
2019-05-03T15:19:50.469Z,2.27
2019-05-03T15:22:22.154Z,2.00
2019-05-03T15:27:25.715Z,1.57
2019-05-03T15:29:58.058Z,1.70
2019-05-03T15:32:30.889Z,1.57
2019-05-03T15:35:00.768Z,1.82
2019-05-03T15:37:31.825Z,2.12
2019-05-03T15:40:15.641Z,1.80
2019-05-03T15:42:54.575Z,1.87
2019-05-03T15:48:38.412Z,2.17
2019-05-03T15:51:09.964Z,2.08
2019-05-03T15:53:41.235Z,3.20
2019-05-03T15:58:46.945Z,2.98
2019-05-03T16:01:19.330Z,3.30
2019-05-03T16:06:27.818Z,3.40
2019-05-03T16:09:00.663Z,3.30
2019-05-03T16:11:32.227Z,3.55
2019-05-03T16:14:06.009Z,2.98
2019-05-03T16:16:37.753Z,3.47
2019-05-03T16:19:07.748Z,3.20
2019-05-03T16:24:11.580Z,3.20
2019-05-03T16:27:02.018Z,2.80
2019-05-03T16:29:41.884Z,3.37
2019-05-03T16:32:12.450Z,3.15
2019-05-03T16:37:12.321Z,3.37
2019-05-03T16:39:41.967Z,2.50
2019-05-03T16:42:18.480Z,3.00
2019-05-03T16:44:50.636Z,2.83
2019-05-03T16:49:51.534Z,2.70
2019-05-03T16:52:25.660Z,3.27
2019-05-03T16:55:03.127Z,3.58
2019-05-03T16:57:35.380Z,3.80
2019-05-03T17:00:06.989Z,4.20
2019-05-03T17:02:39.522Z,3.87
2019-05-03T17:05:24.913Z,3.98
2019-05-03T17:08:14.782Z,4.08
2019-05-03T17:10:49.575Z,3.67
2019-05-03T17:18:21.977Z,4.00
2019-05-03T17:21:04.531Z,3.45
2019-05-03T17:23:35.571Z,3.42
2019-05-03T17:26:05.524Z,3.70
2019-05-03T17:28:35.737Z,3.33
2019-05-03T17:31:07.312Z,3.12
2019-05-03T17:33:36.587Z,2.98
2019-05-03T17:36:13.073Z,3.50
2019-05-03T17:38:57.557Z,3.20
2019-05-03T17:41:50.493Z,3.15
2019-05-03T17:44:27.308Z,3.62
2019-05-03T17:47:04.312Z,4.50
2019-05-03T17:49:34.841Z,3.70
2019-05-03T17:52:24.907Z,3.72
2019-05-03T17:55:15.765Z,3.58
2019-05-03T17:57:57.036Z,3.75
2019-05-03T18:00:44.478Z,3.50
2019-05-03T18:03:14.601Z,2.98
2019-05-03T18:05:55.498Z,2.83
2019-05-03T18:08:55.127Z,3.20
2019-05-03T18:11:28.783Z,3.15
2019-05-03T18:16:26.072Z,3.00
2019-05-03T18:18:54.978Z,3.20
2019-05-03T18:21:24.456Z,3.00
2019-05-03T18:23:54.535Z,3.10
2019-05-03T18:28:55.325Z,2.95
2019-05-03T18:31:25.106Z,2.62
2019-05-03T18:33:55.418Z,3.25
2019-05-03T18:36:25.305Z,2.90
2019-05-03T18:38:55.290Z,2.70
2019-05-03T18:41:25.427Z,3.00
2019-05-03T18:44:14.645Z,2.67
2019-05-03T18:46:47.768Z,2.80
2019-05-03T18:49:16.779Z,2.80
2019-05-03T18:54:15.629Z,3.10
2019-05-03T18:59:14.521Z,3.22
2019-05-03T19:01:45.174Z,3.40
2019-05-03T19:04:34.271Z,2.72
2019-05-03T19:07:04.368Z,3.40
2019-05-03T19:09:40.463Z,3.47
2019-05-03T19:12:17.144Z,3.47
2019-05-03T19:14:46.138Z,2.67
2019-05-03T19:17:35.434Z,2.70
2019-05-03T19:20:09.317Z,2.42
2019-05-03T19:22:38.784Z,2.90
2019-05-03T19:25:07.948Z,2.85
2019-05-03T19:27:37.100Z,3.05
2019-05-03T19:30:07.632Z,2.83
2019-05-03T19:35:06.980Z,3.75
2019-05-03T19:37:36.449Z,7.80
2019-05-03T19:40:06.658Z,6.92
2019-05-03T19:45:08.414Z,5.53
2019-05-03T19:47:37.749Z,5.60
2019-05-03T19:54:25.486Z,3.98
2019-05-03T19:56:55.704Z,3.60
2019-05-03T19:59:43.921Z,3.02
2019-05-03T20:02:41.528Z,3.10
2019-05-03T20:05:34.507Z,3.25
2019-05-03T20:08:24.521Z,3.70
2019-05-03T20:11:17.626Z,3.47
2019-05-03T20:13:47.538Z,3.52
2019-05-03T20:18:46.536Z,3.47
2019-05-03T20:21:15.567Z,3.20
2019-05-03T20:23:47.002Z,3.50
2019-05-03T20:28:45.122Z,3.25
2019-05-03T20:31:14.528Z,3.02
2019-05-03T20:33:45.570Z,3.80
2019-05-03T20:36:14.573Z,3.55
2019-05-03T20:38:44.581Z,3.72
2019-05-03T20:41:14.832Z,3.17
2019-05-03T20:44:15.844Z,3.87
2019-05-03T20:46:58.453Z,3.33
2019-05-03T20:49:27.368Z,4.10
2019-05-03T20:51:56.415Z,4.28
2019-05-03T20:54:27.879Z,4.55
2019-05-03T20:56:58.300Z,3.75
2019-05-03T20:59:27.573Z,4.08
2019-05-03T21:01:56.941Z,3.80
2019-05-03T21:04:26.326Z,3.95
2019-05-03T21:06:55.577Z,4.65
2019-05-03T21:11:55.057Z,3.98
2019-05-03T21:14:24.569Z,4.55
2019-05-03T21:25:12.476Z,5.30
2019-05-03T21:27:42.183Z,5.65
2019-05-03T21:30:11.298Z,5.10
2019-05-03T21:32:40.324Z,4.83
2019-05-03T21:35:10.387Z,5.33
2019-05-03T21:37:39.654Z,6.30
2019-05-03T21:40:08.901Z,6.25
2019-05-03T21:42:38.165Z,6.42
2019-05-03T21:45:10.545Z,6.37
2019-05-03T21:47:48.540Z,7.03
2019-05-03T21:50:19.315Z,6.75
2019-05-03T21:52:48.573Z,6.67
2019-05-03T21:55:20.149Z,6.80
2019-05-03T21:57:49.742Z,7.08
2019-05-03T22:02:51.722Z,8.33
2019-05-03T22:05:21.649Z,7.67
2019-05-03T22:13:00.565Z,7.85
2019-05-03T22:15:40.903Z,8.13
2019-05-03T22:18:21.480Z,7.83
2019-05-03T22:21:15.940Z,7.87
2019-05-03T22:24:04.443Z,8.25
2019-05-03T22:26:55.560Z,8.00
2019-05-03T22:29:25.419Z,8.45
2019-05-03T22:31:54.990Z,8.35
2019-05-03T22:34:25.805Z,8.20
2019-05-03T22:36:55.030Z,8.00
2019-05-03T22:39:24.986Z,7.83
2019-05-03T22:41:54.011Z,8.58
2019-05-03T22:45:23.878Z,7.97
2019-05-03T22:47:54.863Z,7.97
2019-05-03T22:50:25.533Z,8.30
2019-05-03T22:52:54.971Z,8.45
2019-05-03T22:55:24.724Z,8.23
2019-05-03T22:57:54.621Z,8.10
2019-05-03T23:00:25.165Z,8.25
2019-05-03T23:02:54.806Z,8.00
2019-05-03T23:05:24.065Z,7.62
2019-05-03T23:07:55.214Z,7.62
2019-05-03T23:10:25.734Z,7.78
2019-05-03T23:12:55.115Z,8.85
2019-05-03T23:15:24.393Z,7.95
2019-05-03T23:17:54.519Z,7.80
2019-05-03T23:23:05.404Z,7.92
2019-05-03T23:25:35.743Z,7.72
2019-05-03T23:30:33.639Z,7.22
2019-05-03T23:33:02.588Z,7.40
2019-05-03T23:35:31.588Z,7.65
2019-05-03T23:38:00.659Z,7.53
2019-05-03T23:40:29.634Z,7.15
2019-05-03T23:42:58.482Z,7.33
2019-05-03T23:45:27.750Z,7.65
2019-05-03T23:47:56.950Z,8.18
2019-05-03T23:50:26.038Z,7.90
2019-05-03T23:52:55.360Z,8.58
2019-05-03T23:55:41.979Z,8.00
2019-05-03T23:58:11.083Z,8.60
